createdAt,value
2022-12-01T00:02:13.907Z,77.17
2022-12-01T00:04:56.452Z,77.03
2022-12-01T00:07:44.855Z,76.95
2022-12-01T00:10:35.804Z,76.86
2022-12-01T00:13:23.984Z,76.77
2022-12-01T00:15:59.138Z,76.73
2022-12-01T00:18:46.948Z,76.86
2022-12-01T00:21:22.919Z,77.01
2022-12-01T00:24:10.791Z,77.06
2022-12-01T00:26:52.780Z,77.01
2022-12-01T00:29:40.801Z,77.08
2022-12-01T00:32:22.784Z,77.29
2022-12-01T00:35:18.775Z,77.19
2022-12-01T00:38:06.779Z,77.09
2022-12-01T00:40:41.922Z,77.02
2022-12-01T00:43:30.931Z,77.08
2022-12-01T00:46:06.049Z,77.12
2022-12-01T00:48:53.759Z,77.10
2022-12-01T00:51:34.776Z,77.13
2022-12-01T00:54:22.916Z,77.26
2022-12-01T00:56:57.920Z,77.28
2022-12-01T00:59:45.938Z,77.22
2022-12-01T01:02:20.982Z,77.19
2022-12-01T01:05:08.767Z,77.08
2022-12-01T01:07:49.962Z,77.09
2022-12-01T01:10:30.736Z,77.19
2022-12-01T01:13:11.908Z,77.20
2022-12-01T01:15:52.789Z,77.21
2022-12-01T01:18:41.771Z,77.24
2022-12-01T01:21:18.426Z,77.18
2022-12-01T01:24:08.724Z,77.34
2022-12-01T01:26:43.249Z,77.34
2022-12-01T01:29:30.789Z,77.28
2022-12-01T01:32:05.508Z,77.37
2022-12-01T01:34:53.781Z,77.32
2022-12-01T01:37:34.788Z,77.32
2022-12-01T01:40:16.898Z,77.32
2022-12-01T01:42:57.720Z,77.43
2022-12-01T01:45:38.917Z,77.32
2022-12-01T01:48:20.768Z,77.48
2022-12-01T01:51:03.014Z,77.50
2022-12-01T01:53:44.755Z,77.44
2022-12-01T01:56:25.965Z,77.51
2022-12-01T01:59:13.766Z,77.30
2022-12-01T02:01:49.261Z,77.37
2022-12-01T02:04:36.776Z,77.43
2022-12-01T02:07:11.980Z,77.28
2022-12-01T02:10:00.774Z,77.40
2022-12-01T02:13:13.753Z,77.56
2022-12-01T02:16:23.852Z,77.65
2022-12-01T02:19:26.750Z,77.75
2022-12-01T02:22:32.918Z,77.90
2022-12-01T02:25:29.744Z,77.79
2022-12-01T02:29:00.760Z,77.87
2022-12-01T02:32:00.883Z,77.83
2022-12-01T02:34:53.746Z,77.90
2022-12-01T02:37:34.884Z,78.05
2022-12-01T02:40:58.778Z,78.01
2022-12-01T02:43:55.888Z,78.10
2022-12-01T02:46:43.925Z,78.23
2022-12-01T02:49:39.952Z,78.21
2022-12-01T02:52:16.590Z,78.29
2022-12-01T02:55:05.766Z,78.29
2022-12-01T02:57:40.312Z,78.04
2022-12-01T03:00:29.761Z,78.00
2022-12-01T03:03:36.749Z,78.00
2022-12-01T03:06:30.905Z,78.04
2022-12-01T03:09:40.903Z,78.10
2022-12-01T03:13:03.961Z,78.35
2022-12-01T03:15:55.174Z,78.43
2022-12-01T03:18:49.748Z,78.45
2022-12-01T03:21:48.736Z,78.45
2022-12-01T03:24:39.736Z,78.38
2022-12-01T03:27:14.945Z,78.18
2022-12-01T03:30:05.730Z,78.20
2022-12-01T03:32:47.618Z,78.13
2022-12-01T03:35:40.759Z,78.22
2022-12-01T03:38:27.711Z,78.33
2022-12-01T03:41:30.711Z,78.41
2022-12-01T03:44:30.727Z,78.50
2022-12-01T03:47:24.744Z,78.66
2022-12-01T03:50:06.730Z,78.70
2022-12-01T03:53:13.944Z,78.61
2022-12-01T03:56:09.879Z,78.72
2022-12-01T03:58:55.738Z,78.88
2022-12-01T04:01:50.762Z,78.88
2022-12-01T04:04:38.756Z,78.79
2022-12-01T04:07:21.791Z,78.73
2022-12-01T04:10:04.362Z,78.68
2022-12-01T04:12:52.747Z,78.64
2022-12-01T04:15:28.158Z,78.61
2022-12-01T04:18:15.733Z,78.60
2022-12-01T04:20:56.744Z,78.54
2022-12-01T04:24:03.738Z,78.59
2022-12-01T04:26:52.743Z,78.67
2022-12-01T04:29:40.719Z,78.81
2022-12-01T04:32:15.880Z,78.67
2022-12-01T04:35:03.724Z,78.80
2022-12-01T04:37:45.736Z,78.75
2022-12-01T04:40:40.728Z,78.65
2022-12-01T04:43:28.743Z,78.71
2022-12-01T04:46:04.063Z,78.82
2022-12-01T04:48:51.717Z,78.73
2022-12-01T04:51:27.035Z,78.83
2022-12-01T04:54:14.720Z,78.88
2022-12-01T04:56:49.885Z,78.92
2022-12-01T04:59:37.838Z,78.98
2022-12-01T05:02:12.870Z,78.79
2022-12-01T05:05:00.746Z,78.62
2022-12-01T05:07:35.879Z,78.42
2022-12-01T05:10:25.752Z,78.53
2022-12-01T05:13:00.853Z,78.61
2022-12-01T05:15:48.777Z,78.50
2022-12-01T05:18:30.732Z,78.54
2022-12-01T05:21:25.709Z,78.52
2022-12-01T05:24:14.739Z,78.60
2022-12-01T05:26:49.870Z,78.54
2022-12-01T05:29:39.876Z,78.65
2022-12-01T05:32:15.011Z,78.68
2022-12-01T05:35:02.846Z,78.75
2022-12-01T05:37:50.715Z,78.76
2022-12-01T05:40:25.305Z,78.87
2022-12-01T05:43:13.857Z,78.93
2022-12-01T05:45:56.777Z,78.88
2022-12-01T05:48:44.735Z,78.96
2022-12-01T05:51:19.175Z,78.83
2022-12-01T05:54:06.710Z,78.79
2022-12-01T05:56:41.283Z,78.62
2022-12-01T05:59:28.692Z,78.51
2022-12-01T06:02:03.204Z,78.40
2022-12-01T06:04:50.669Z,78.50
2022-12-01T06:07:26.199Z,78.67
2022-12-01T06:10:13.916Z,78.74
2022-12-01T06:12:49.272Z,78.70
2022-12-01T06:15:37.739Z,78.78
2022-12-01T06:18:12.151Z,78.66
2022-12-01T06:21:00.921Z,78.55
2022-12-01T06:23:42.893Z,78.59
2022-12-01T06:26:37.895Z,78.58
2022-12-01T06:29:25.736Z,78.57
2022-12-01T06:32:01.020Z,78.59
2022-12-01T06:34:48.717Z,78.76
2022-12-01T06:37:30.687Z,78.80
2022-12-01T06:40:26.681Z,78.88
2022-12-01T06:43:14.692Z,78.97
2022-12-01T06:45:50.046Z,78.77
2022-12-01T06:48:38.712Z,78.69
2022-12-01T06:51:20.694Z,78.68
2022-12-01T06:54:15.858Z,78.73
2022-12-01T06:57:03.972Z,78.77
2022-12-01T06:59:38.841Z,78.87
2022-12-01T07:02:26.907Z,78.95
2022-12-01T07:05:08.697Z,78.95
2022-12-01T07:07:59.677Z,78.88
2022-12-01T07:10:35.111Z,78.94
2022-12-01T07:13:22.842Z,78.87
2022-12-01T07:15:57.981Z,78.90
2022-12-01T07:18:47.862Z,78.92
2022-12-01T07:21:30.883Z,78.80
2022-12-01T07:24:25.676Z,78.73
2022-12-01T07:27:13.694Z,78.88
2022-12-01T07:29:48.992Z,78.76
2022-12-01T07:32:36.694Z,78.68
2022-12-01T07:35:11.835Z,78.54
2022-12-01T07:38:03.855Z,78.49
2022-12-01T07:40:38.997Z,78.42
2022-12-01T07:43:26.828Z,78.36
2022-12-01T07:46:01.996Z,78.39
2022-12-01T07:48:49.886Z,78.39
2022-12-01T07:51:24.830Z,78.42
2022-12-01T07:54:13.680Z,78.27
2022-12-01T07:56:49.029Z,78.14
2022-12-01T07:59:36.704Z,78.14
2022-12-01T08:02:18.758Z,78.12
2022-12-01T08:05:06.669Z,78.15
2022-12-01T08:07:41.935Z,78.03
2022-12-01T08:10:29.682Z,77.95
2022-12-01T08:13:04.868Z,78.13
2022-12-01T08:15:52.893Z,78.25
2022-12-01T08:18:28.819Z,78.07
2022-12-01T08:21:20.702Z,78.06
2022-12-01T08:24:06.669Z,77.84
2022-12-01T08:27:01.837Z,77.72
2022-12-01T08:29:49.844Z,77.71
2022-12-01T08:32:24.828Z,77.81
2022-12-01T08:35:12.667Z,77.74
2022-12-01T08:37:47.824Z,77.88
2022-12-01T08:40:35.703Z,77.94
2022-12-01T08:43:34.737Z,77.80
2022-12-01T08:46:25.883Z,77.59
2022-12-01T08:49:05.873Z,77.59
2022-12-01T08:51:56.675Z,77.55
2022-12-01T08:54:31.839Z,77.62
2022-12-01T08:57:13.796Z,77.74
2022-12-01T08:59:56.920Z,77.54
2022-12-01T09:02:38.740Z,77.47
2022-12-01T09:05:26.691Z,77.54
2022-12-01T09:08:40.914Z,77.49
2022-12-01T09:11:28.839Z,77.11
2022-12-01T09:14:05.843Z,77.24
2022-12-01T09:16:56.804Z,77.18
2022-12-01T09:19:31.827Z,77.16
2022-12-01T09:22:19.803Z,76.93
2022-12-01T09:25:01.622Z,76.82
2022-12-01T09:27:49.821Z,76.88
2022-12-01T09:30:30.720Z,76.88
2022-12-01T09:33:11.895Z,76.55
2022-12-01T09:35:52.754Z,76.59
2022-12-01T09:38:39.885Z,76.58
2022-12-01T09:41:30.778Z,76.32
2022-12-01T09:44:31.821Z,76.24
2022-12-01T09:47:21.814Z,76.23
2022-12-01T09:50:14.687Z,76.11
2022-12-01T09:52:56.155Z,76.22
2022-12-01T09:55:43.639Z,76.35
2022-12-01T09:58:24.800Z,76.16
2022-12-01T10:01:12.690Z,76.23
2022-12-01T10:03:52.860Z,76.15
2022-12-01T10:06:49.664Z,75.96
2022-12-01T10:09:40.959Z,75.94
2022-12-01T10:12:34.856Z,75.78
2022-12-01T10:15:38.708Z,75.68
2022-12-01T10:18:34.194Z,75.74
2022-12-01T10:21:30.651Z,75.67
2022-12-01T10:24:14.983Z,75.55
2022-12-01T10:27:08.845Z,75.39
2022-12-01T10:29:56.795Z,75.16
2022-12-01T10:33:26.823Z,75.17
2022-12-01T10:36:16.651Z,75.01
2022-12-01T10:38:51.937Z,75.18
2022-12-01T10:41:42.671Z,75.01
2022-12-01T10:44:17.980Z,74.99
2022-12-01T10:47:05.627Z,75.02
2022-12-01T10:49:53.089Z,74.88
2022-12-01T10:52:52.637Z,75.04
2022-12-01T10:55:48.175Z,74.86
2022-12-01T10:58:24.933Z,74.82
2022-12-01T11:01:13.887Z,74.70
2022-12-01T11:03:48.917Z,74.19
2022-12-01T11:06:37.633Z,74.12
2022-12-01T11:09:14.804Z,74.04
2022-12-01T11:12:04.632Z,74.28
2022-12-01T11:14:51.808Z,74.25
2022-12-01T11:17:49.641Z,74.16
2022-12-01T11:20:36.215Z,74.26
2022-12-01T11:23:33.637Z,74.28
2022-12-01T11:26:21.075Z,74.48
2022-12-01T11:29:11.828Z,73.99
2022-12-01T11:31:51.002Z,73.79
2022-12-01T11:34:44.735Z,73.43
2022-12-01T11:37:23.777Z,73.64
2022-12-01T11:40:25.687Z,73.71
2022-12-01T11:43:02.787Z,73.48
2022-12-01T11:45:51.841Z,73.47
2022-12-01T11:48:42.631Z,73.39
2022-12-01T11:51:30.633Z,73.34
2022-12-01T11:54:28.797Z,73.67
2022-12-01T11:57:33.685Z,73.72
2022-12-01T12:00:19.993Z,73.55
2022-12-01T12:03:26.704Z,73.65
2022-12-01T12:06:39.826Z,73.60
2022-12-01T12:09:43.522Z,73.47
2022-12-01T12:12:37.790Z,73.11
2022-12-01T12:15:22.640Z,73.12
2022-12-01T12:18:22.765Z,72.95
2022-12-01T12:21:18.639Z,72.80
2022-12-01T12:24:18.863Z,72.53
2022-12-01T12:27:29.719Z,72.06
2022-12-01T12:30:37.729Z,72.14
2022-12-01T12:33:33.690Z,72.41
2022-12-01T12:36:17.752Z,72.44
2022-12-01T12:39:16.751Z,72.55
2022-12-01T12:41:56.795Z,72.73
2022-12-01T12:45:10.641Z,72.78
2022-12-01T12:48:07.621Z,72.86
2022-12-01T12:51:15.744Z,72.89
2022-12-01T12:54:39.721Z,72.43
2022-12-01T12:57:34.616Z,72.59
2022-12-01T13:00:28.651Z,72.58
2022-12-01T13:03:16.643Z,72.49
2022-12-01T13:06:07.753Z,72.64
2022-12-01T13:09:05.935Z,72.76
2022-12-01T13:12:04.618Z,72.90
2022-12-01T13:15:05.617Z,72.94
2022-12-01T13:17:48.633Z,73.08
2022-12-01T13:20:39.612Z,73.12
2022-12-01T13:23:24.713Z,73.19
2022-12-01T13:26:08.705Z,73.02
2022-12-01T13:28:56.743Z,72.93
2022-12-01T13:31:55.578Z,72.75
2022-12-01T13:34:39.713Z,73.03
2022-12-01T13:37:39.631Z,73.07
2022-12-01T13:40:28.128Z,73.10
2022-12-01T13:43:17.610Z,73.11
2022-12-01T13:46:15.652Z,73.28
2022-12-01T13:49:06.616Z,73.29
2022-12-01T13:52:38.752Z,73.46
2022-12-01T13:55:26.547Z,73.19
2022-12-01T13:58:10.563Z,73.20
2022-12-01T14:01:10.023Z,73.14
2022-12-01T14:04:08.618Z,73.13
2022-12-01T14:06:49.664Z,73.09
2022-12-01T14:09:37.547Z,72.94
2022-12-01T14:12:18.761Z,72.83
2022-12-01T14:15:10.599Z,72.84
2022-12-01T14:17:45.739Z,72.54
2022-12-01T14:20:34.599Z,72.37
2022-12-01T14:23:21.731Z,72.47
2022-12-01T14:26:20.620Z,72.58
2022-12-01T14:29:15.778Z,72.58
2022-12-01T14:32:16.808Z,72.54
2022-12-01T14:35:13.599Z,72.75
2022-12-01T14:38:03.614Z,72.85
2022-12-01T14:40:38.752Z,73.04
2022-12-01T14:43:46.616Z,73.24
2022-12-01T14:46:29.771Z,73.26
2022-12-01T14:49:11.613Z,73.40
2022-12-01T14:51:54.699Z,73.35
2022-12-01T14:54:46.612Z,73.39
2022-12-01T14:57:37.743Z,73.53
2022-12-01T15:00:28.585Z,73.51
2022-12-01T15:03:16.772Z,73.35
2022-12-01T15:05:58.610Z,73.41
2022-12-01T15:09:10.521Z,73.74
2022-12-01T15:11:53.959Z,73.61
2022-12-01T15:14:46.724Z,73.65
2022-12-01T15:17:33.301Z,73.70
2022-12-01T15:20:47.562Z,73.93
2022-12-01T15:23:21.995Z,73.91
2022-12-01T15:26:09.593Z,73.87
2022-12-01T15:28:50.547Z,73.88
2022-12-01T15:31:38.685Z,73.93
2022-12-01T15:34:23.917Z,73.75
2022-12-01T15:37:13.583Z,73.57
2022-12-01T15:43:27.581Z,73.57
2022-12-01T15:46:19.757Z,73.65
2022-12-01T15:48:54.765Z,73.51
2022-12-01T15:51:42.594Z,73.60
2022-12-01T15:54:36.588Z,73.70
2022-12-01T15:57:33.539Z,73.83
2022-12-01T16:00:28.736Z,73.57
2022-12-01T16:03:05.233Z,73.46
2022-12-01T16:05:53.683Z,73.85
2022-12-01T16:08:34.784Z,73.96
2022-12-01T16:11:24.568Z,74.07
2022-12-01T16:14:09.605Z,74.28
2022-12-01T16:16:58.722Z,74.18
2022-12-01T16:19:45.585Z,74.15
2022-12-01T16:22:41.133Z,74.07
2022-12-01T16:25:37.206Z,74.18
2022-12-01T16:28:20.879Z,74.23
2022-12-01T16:31:05.554Z,74.11
2022-12-01T16:33:54.582Z,74.08
2022-12-01T16:36:29.053Z,73.95
2022-12-01T16:39:20.641Z,74.04
2022-12-01T16:42:00.608Z,74.08
2022-12-01T16:44:49.622Z,74.19
2022-12-01T16:47:26.104Z,74.07
2022-12-01T16:50:13.564Z,74.10
2022-12-01T16:52:49.518Z,73.99
2022-12-01T16:56:07.565Z,73.94
2022-12-01T16:58:42.890Z,73.98
2022-12-01T17:01:32.088Z,74.16
2022-12-01T17:04:07.931Z,74.09
2022-12-01T17:06:55.719Z,74.20
2022-12-01T17:09:31.165Z,74.28
2022-12-01T17:12:19.581Z,74.19
2022-12-01T17:14:54.139Z,74.22
2022-12-01T17:17:42.778Z,74.17
2022-12-01T17:20:18.486Z,74.23
2022-12-01T17:23:06.563Z,74.41
2022-12-01T17:25:48.585Z,74.33
2022-12-01T17:28:45.556Z,74.41
2022-12-01T17:31:34.581Z,74.61
2022-12-01T17:34:12.699Z,74.64
2022-12-01T17:37:02.571Z,74.52
2022-12-01T17:39:52.580Z,74.70
2022-12-01T17:42:33.574Z,74.84
2022-12-01T17:45:15.856Z,74.83
2022-12-01T17:47:57.680Z,74.77
2022-12-01T17:50:40.247Z,74.67
2022-12-01T17:53:28.562Z,74.81
2022-12-01T17:56:03.705Z,74.79
2022-12-01T17:58:51.673Z,74.95
2022-12-01T18:01:34.612Z,74.98
2022-12-01T18:04:22.535Z,74.90
2022-12-01T18:07:04.713Z,74.92
2022-12-01T18:10:00.859Z,74.86
2022-12-01T18:12:48.575Z,74.92
2022-12-01T18:15:29.229Z,74.91
2022-12-01T18:18:19.557Z,74.85
2022-12-01T18:21:01.832Z,74.90
2022-12-01T18:24:02.368Z,74.81
2022-12-01T18:26:52.591Z,74.78
2022-12-01T18:29:47.662Z,74.83
2022-12-01T18:32:39.054Z,74.81
2022-12-01T18:35:21.540Z,74.82
2022-12-01T18:38:16.548Z,74.93
2022-12-01T18:41:05.650Z,75.06
2022-12-01T18:43:43.804Z,75.02
2022-12-01T18:46:35.612Z,75.02
2022-12-01T18:49:17.536Z,75.05
2022-12-01T18:52:07.527Z,74.92
2022-12-01T18:54:42.751Z,74.76
2022-12-01T18:57:30.617Z,74.89
2022-12-01T19:00:06.486Z,75.00
2022-12-01T19:02:56.789Z,74.69
2022-12-01T19:05:40.610Z,74.39
2022-12-01T19:08:35.817Z,74.28
2022-12-01T19:11:26.123Z,74.17
2022-12-01T19:14:02.272Z,74.27
2022-12-01T19:17:09.764Z,74.09
2022-12-01T19:19:49.844Z,74.11
2022-12-01T19:22:32.067Z,74.06
2022-12-01T19:25:17.010Z,74.08
2022-12-01T19:28:03.510Z,74.09
2022-12-01T19:30:52.536Z,73.89
2022-12-01T19:33:40.815Z,73.66
2022-12-01T19:36:28.673Z,73.76
2022-12-01T19:39:12.522Z,73.88
2022-12-01T19:41:54.803Z,73.79
2022-12-01T19:44:36.756Z,73.77
2022-12-01T19:47:25.000Z,73.69
2022-12-01T19:50:00.289Z,73.70
2022-12-01T19:52:49.546Z,73.65
2022-12-01T19:55:24.783Z,73.55
2022-12-01T19:58:13.690Z,73.45
2022-12-01T20:00:50.573Z,73.35
2022-12-01T20:03:39.888Z,73.08
2022-12-01T20:06:22.280Z,73.32
2022-12-01T20:09:16.541Z,73.43
2022-12-01T20:11:59.132Z,73.28
2022-12-01T20:14:42.687Z,73.35
2022-12-01T20:17:25.462Z,73.21
2022-12-01T20:20:06.877Z,73.21
2022-12-01T20:22:50.500Z,73.18
2022-12-01T20:25:33.937Z,73.29
2022-12-01T20:28:16.535Z,73.26
2022-12-01T20:31:06.535Z,73.16
2022-12-01T20:33:41.848Z,73.24
2022-12-01T20:36:37.196Z,73.41
2022-12-01T20:39:14.586Z,73.43
2022-12-01T20:42:05.221Z,73.50
2022-12-01T20:44:47.647Z,73.50
2022-12-01T20:47:31.670Z,73.43
2022-12-01T20:50:15.389Z,73.81
2022-12-01T20:52:57.031Z,73.78
2022-12-01T20:55:44.577Z,73.85
2022-12-01T20:58:37.545Z,73.95
2022-12-01T21:01:17.616Z,74.17
2022-12-01T21:04:07.499Z,74.18
2022-12-01T21:06:42.411Z,73.96
2022-12-01T21:09:31.514Z,73.93
2022-12-01T21:12:39.016Z,73.92
2022-12-01T21:15:29.266Z,74.06
2022-12-01T21:18:10.389Z,74.24
2022-12-01T21:20:59.491Z,74.17
2022-12-01T21:23:43.350Z,74.20
2022-12-01T21:26:34.874Z,74.40
2022-12-01T21:29:29.308Z,74.52
2022-12-01T21:32:26.673Z,74.62
2022-12-01T21:35:20.524Z,74.56
2022-12-01T21:38:07.769Z,74.57
2022-12-01T21:40:57.862Z,74.67
2022-12-01T21:43:43.747Z,74.81
2022-12-01T21:46:38.564Z,74.82
2022-12-01T21:49:49.232Z,74.66
2022-12-01T21:52:50.427Z,74.54
2022-12-01T21:55:33.791Z,74.45
2022-12-01T21:58:27.565Z,74.37
2022-12-01T22:01:06.492Z,74.38
2022-12-01T22:04:00.569Z,74.47
2022-12-01T22:06:48.662Z,74.60
2022-12-01T22:09:38.522Z,74.52
2022-12-01T22:12:24.971Z,74.39
2022-12-01T22:15:09.554Z,74.10
2022-12-01T22:17:51.704Z,73.92
2022-12-01T22:20:32.533Z,73.91
2022-12-01T22:23:17.616Z,74.06
2022-12-01T22:25:58.491Z,74.09
2022-12-01T22:28:53.489Z,74.12
2022-12-01T22:31:41.491Z,73.93
2022-12-01T22:34:25.443Z,73.87
2022-12-01T22:37:29.512Z,73.95
2022-12-01T22:40:40.566Z,73.94
2022-12-01T22:43:24.454Z,73.82
2022-12-01T22:46:37.611Z,73.80
2022-12-01T22:49:30.568Z,73.70
2022-12-01T22:52:27.614Z,73.57
2022-12-01T22:55:02.572Z,73.52
2022-12-01T22:57:50.503Z,73.43
2022-12-01T23:00:37.589Z,73.24
2022-12-01T23:03:32.457Z,73.27
2022-12-01T23:07:11.681Z,73.54
2022-12-01T23:09:50.710Z,73.87
2022-12-01T23:12:41.636Z,73.85
2022-12-01T23:15:36.500Z,74.03
2022-12-01T23:18:33.481Z,73.96
2022-12-01T23:21:15.464Z,74.10
2022-12-01T23:24:10.504Z,74.12
2022-12-01T23:26:58.475Z,73.97
2022-12-01T23:29:40.686Z,73.98
2022-12-01T23:32:35.626Z,74.00
2022-12-01T23:35:25.468Z,74.06
2022-12-01T23:38:00.622Z,74.09
2022-12-01T23:40:48.470Z,73.99
2022-12-01T23:43:28.651Z,73.79
2022-12-01T23:46:26.512Z,73.79
2022-12-01T23:49:07.533Z,73.76
2022-12-01T23:51:53.475Z,73.74
2022-12-01T23:54:38.602Z,73.76
2022-12-01T23:57:29.471Z,73.72
